Hetton le Hole, United Kingdom
Current Conditions -  °F | °C
As of 9:20 AM on Thursday 27 Nov 2014 (Local Time) from EGNT Reporting Station
Drizzle Drizzle  
Wind Chill:   Ceiling: 200
Heat Index:   Visibility: 0.56mi
Dew Point:   Wind: 3mph
Humidity: 100%   Direction: 40°NE
Pressure: 29.62"   Gusts: NA
Location:  54.82°N, 1.45°W
Report Text: EGNT 270920Z 04003KT 0900 -DZ FG BKN002 08/08 Q1003
Loading
Personal Weather Stations






























Interactive Weather Map New forecast layout! Learn more

10-Day Weather Forecast

Advertisements
Track Severe Weather on mobile